Time;durP1;ratioP1;P1;durP2;ratioP2;P2;SDS_P1;SDS_P2;PMS_P1;PMS_P2;Temp;Humidity;BMP_temperature;BMP_pressure;BME280_temperature;BME280_humidity;BME280_pressure;Samples;Min_cycle;Max_cycle;Signal;HPM_P1;HPM_P2
2023/12/13 00:01:23;;;;;;;4.80;0.70;;;8.30;75.00;;;;;;4957544;28;20031;-79
2023/12/13 00:03:48;;;;;;;3.90;0.70;;;8.40;74.90;;;;;;4956265;28;20523;-75
2023/12/13 00:06:14;;;;;;;4.18;0.80;;;8.40;74.50;;;;;;4939027;29;20480;-77
2023/12/13 00:08:41;;;;;;;9.02;1.00;;;8.40;74.90;;;;;;4938760;29;20031;-77
2023/12/13 00:11:07;;;;;;;4.05;0.60;;;8.40;75.10;;;;;;4956426;28;20034;-77
2023/12/13 00:13:33;;;;;;;3.08;0.70;;;8.50;75.30;;;;;;4939164;29;20039;-75
2023/12/13 00:16:02;;;;;;;3.03;0.73;;;8.50;75.00;;;;;;4938964;29;20039;-74
2023/12/13 00:18:28;;;;;;;2.63;0.68;;;8.40;75.50;;;;;;4955661;28;20047;-76
2023/12/13 00:20:54;;;;;;;3.40;0.82;;;8.50;75.50;;;;;;4955989;29;20074;-75
2023/12/13 00:23:19;;;;;;;5.35;0.63;;;8.40;75.90;;;;;;4938775;29;20023;-75
2023/12/13 00:25:45;;;;;;;4.10;0.90;;;8.50;76.40;;;;;;4938970;29;20033;-75
2023/12/13 00:28:10;;;;;;;2.20;0.50;;;8.40;76.70;;;;;;4939310;29;20037;-75
2023/12/13 00:30:36;;;;;;;1.98;0.60;;;8.40;77.50;;;;;;4940206;29;20073;-77
2023/12/13 00:33:02;;;;;;;2.92;0.60;;;8.30;78.90;;;;;;4944542;29;20062;-77
2023/12/13 00:35:27;;;;;;;3.60;0.43;;;8.30;79.00;;;;;;4939325;29;20027;-75
2023/12/13 00:37:54;;;;;;;0.98;0.35;;;8.30;79.20;;;;;;4938858;29;20098;-74
2023/12/13 00:40:22;;;;;;;1.80;0.40;;;8.30;80.00;;;;;;4938578;29;20042;-76
2023/12/13 00:42:48;;;;;;;1.27;0.30;;;8.30;79.50;;;;;;4938644;29;20350;-79
2023/12/13 00:45:14;;;;;;;1.77;0.30;;;8.30;79.70;;;;;;4938638;29;20027;-75
2023/12/13 00:47:40;;;;;;;0.15;0.10;;;8.30;79.40;;;;;;4938534;29;20031;-75
2023/12/13 00:50:07;;;;;;;1.25;0.20;;;8.30;79.90;;;;;;4935239;29;20051;-77
2023/12/13 00:52:35;;;;;;;0.55;0.10;;;8.30;78.20;;;;;;4936493;29;20087;-78
2023/12/13 00:55:04;;;;;;;2.40;0.47;;;8.30;77.90;;;;;;4935086;29;20527;-76
2023/12/13 00:57:30;;;;;;;0.03;0.00;;;8.30;77.50;;;;;;4936658;29;20067;-75
2023/12/13 00:59:56;;;;;;;1.20;0.30;;;8.40;76.70;;;;;;4934974;29;20036;-76
2023/12/13 01:02:22;;;;;;;1.33;0.40;;;8.40;76.70;;;;;;4934918;29;20087;-76
2023/12/13 01:04:48;;;;;;;0.75;0.20;;;8.40;76.90;;;;;;4934550;29;20118;-76
2023/12/13 01:07:13;;;;;;;0.13;0.10;;;8.40;77.00;;;;;;4934961;29;20024;-76
2023/12/13 01:09:39;;;;;;;1.70;0.20;;;8.40;77.40;;;;;;4934985;29;20032;-75
2023/12/13 01:12:05;;;;;;;0.88;0.20;;;8.40;77.10;;;;;;4935105;29;20035;-77
2023/12/13 01:14:31;;;;;;;0.08;0.03;;;8.40;76.70;;;;;;4934967;29;20123;-76
2023/12/13 01:16:57;;;;;;;0.63;0.20;;;8.40;77.00;;;;;;4934967;29;20063;-77
2023/12/13 01:19:24;;;;;;;2.13;0.20;;;8.40;77.20;;;;;;4934597;29;20028;-77
2023/12/13 01:21:50;;;;;;;0.47;0.10;;;8.40;77.20;;;;;;4934837;29;20035;-79
2023/12/13 01:24:15;;;;;;;1.05;0.20;;;8.40;77.30;;;;;;4934742;29;20381;-77
2023/12/13 01:26:41;;;;;;;1.52;0.17;;;8.50;77.60;;;;;;4935008;29;20384;-77
2023/12/13 01:29:07;;;;;;;0.55;0.10;;;8.50;77.80;;;;;;4934905;29;20031;-77
2023/12/13 01:31:34;;;;;;;0.90;0.25;;;8.60;77.80;;;;;;4936625;29;20370;-82
2023/12/13 01:34:02;;;;;;;0.13;0.10;;;8.50;77.00;;;;;;4938913;29;20607;-74
2023/12/13 01:36:27;;;;;;;0.08;0.00;;;8.50;78.00;;;;;;4938923;29;20025;-75
2023/12/13 01:38:53;;;;;;;1.45;0.20;;;8.50;77.20;;;;;;4939017;29;20026;-76
2023/12/13 01:41:18;;;;;;;0.90;0.20;;;8.40;77.20;;;;;;4938781;29;20042;-76
2023/12/13 01:43:44;;;;;;;1.98;0.10;;;8.40;77.10;;;;;;4940198;29;20075;-75
2023/12/13 01:46:12;;;;;;;0.80;0.17;;;8.40;77.40;;;;;;4938756;29;20631;-74
2023/12/13 01:48:38;;;;;;;1.25;0.10;;;8.40;76.90;;;;;;4938741;29;20055;-82
2023/12/13 01:51:03;;;;;;;0.25;0.10;;;8.50;76.60;;;;;;4938609;29;20043;-77
2023/12/13 01:53:32;;;;;;;0.38;0.00;;;8.50;76.80;;;;;;4938615;29;20088;-75
2023/12/13 01:55:57;;;;;;;0.28;0.20;;;8.40;77.20;;;;;;4923057;29;20036;-77
2023/12/13 01:58:24;;;;;;;0.20;0.05;;;8.40;78.00;;;;;;4938993;29;20078;-75
2023/12/13 02:00:51;;;;;;;0.22;0.10;;;8.30;77.70;;;;;;4938792;29;20106;-78
2023/12/13 02:03:16;;;;;;;0.10;0.00;;;8.30;78.10;;;;;;4939721;29;20031;-76
2023/12/13 02:05:44;;;;;;;0.82;0.08;;;8.20;77.90;;;;;;4939577;29;20026;-76
2023/12/13 02:08:09;;;;;;;0.00;0.00;;;8.20;78.20;;;;;;4939859;29;20388;-78
2023/12/13 02:10:35;;;;;;;0.55;0.10;;;8.30;78.30;;;;;;4941338;29;20032;-77
2023/12/13 02:13:02;;;;;;;0.50;0.17;;;8.30;78.30;;;;;;4944571;29;20035;-79
2023/12/13 02:15:27;;;;;;;1.27;0.17;;;8.30;78.30;;;;;;4942073;29;20079;-86
2023/12/13 02:17:53;;;;;;;0.43;0.03;;;8.30;78.30;;;;;;4941826;29;20023;-89
2023/12/13 02:20:20;;;;;;;1.00;0.10;;;8.30;78.30;;;;;;4941256;29;20043;-87
2023/12/13 02:22:46;;;;;;;0.10;0.10;;;8.40;78.50;;;;;;4941871;29;20520;-87
2023/12/13 02:25:19;;;;;;;0.55;0.08;;;8.40;78.30;;;;;;4941720;29;20122;-88
2023/12/13 02:27:45;;;;;;;2.08;0.10;;;8.40;78.50;;;;;;4941506;29;20043;-87
2023/12/13 02:30:11;;;;;;;0.80;0.10;;;8.50;78.70;;;;;;4940603;29;20031;-88
2023/12/13 02:32:37;;;;;;;0.00;0.00;;;8.50;78.80;;;;;;4940314;29;20365;-87
2023/12/13 02:35:04;;;;;;;1.02;0.20;;;8.50;78.80;;;;;;4939749;29;20035;-88
2023/12/13 02:37:30;;;;;;;0.30;0.10;;;8.50;79.20;;;;;;4940144;29;20056;-84
2023/12/13 02:39:57;;;;;;;0.60;0.22;;;8.60;79.30;;;;;;4939475;29;20036;-87
2023/12/13 02:42:22;;;;;;;0.88;0.30;;;8.50;79.70;;;;;;4940067;29;20027;-87
2023/12/13 02:44:48;;;;;;;0.65;0.38;;;8.50;80.00;;;;;;4939414;29;20362;-87
2023/12/13 02:47:13;;;;;;;0.80;0.38;;;8.50;80.30;;;;;;4940502;29;20024;-88
2023/12/13 02:49:39;;;;;;;1.15;0.35;;;8.50;80.40;;;;;;4940974;28;20095;-87
2023/12/13 02:52:05;;;;;;;0.63;0.30;;;8.50;80.70;;;;;;4959943;29;20023;-86
2023/12/13 02:54:31;;;;;;;0.30;0.20;;;8.50;80.80;;;;;;4942363;29;20503;-89
2023/12/13 02:56:56;;;;;;;0.65;0.13;;;8.50;81.10;;;;;;4943740;29;20023;-89
2023/12/13 02:59:22;;;;;;;0.20;0.10;;;8.50;81.50;;;;;;4942473;29;20038;-88
2023/12/13 03:01:47;;;;;;;1.85;0.25;;;8.40;81.60;;;;;;4943034;29;20028;-87
2023/12/13 03:04:13;;;;;;;0.43;0.25;;;8.50;82.00;;;;;;4927528;29;20059;-85
2023/12/13 03:06:40;;;;;;;0.77;0.40;;;8.40;82.30;;;;;;4942998;29;20121;-88
2023/12/13 03:09:06;;;;;;;0.75;0.40;;;8.40;82.40;;;;;;4927313;29;20052;-88
2023/12/13 03:11:31;;;;;;;0.80;0.47;;;8.30;82.80;;;;;;4943078;29;20019;-89
2023/12/13 03:13:57;;;;;;;1.30;0.30;;;8.30;83.20;;;;;;4943621;29;20023;-86
2023/12/13 03:16:24;;;;;;;1.98;0.50;;;8.30;83.40;;;;;;4943492;29;20031;-87
2023/12/13 03:18:50;;;;;;;0.32;0.17;;;8.30;83.70;;;;;;4944754;29;20039;-82
2023/12/13 03:21:15;;;;;;;0.73;0.30;;;8.30;83.90;;;;;;4944997;29;20066;-85
2023/12/13 03:23:41;;;;;;;0.90;0.30;;;8.20;84.60;;;;;;4943620;29;20432;-85
2023/12/13 03:26:06;;;;;;;1.15;0.43;;;8.10;84.70;;;;;;4943516;29;20034;-88
2023/12/13 03:28:32;;;;;;;0.82;0.30;;;8.00;85.00;;;;;;4944635;29;20023;-89
2023/12/13 03:30:58;;;;;;;0.45;0.20;;;8.00;85.30;;;;;;4965094;28;20023;-86
2023/12/13 03:33:23;;;;;;;1.35;0.32;;;8.00;85.40;;;;;;4955610;29;20022;-86
2023/12/13 03:35:49;;;;;;;0.90;0.20;;;8.00;85.50;;;;;;4942464;29;20027;-85
2023/12/13 03:38:15;;;;;;;2.35;0.30;;;8.00;85.50;;;;;;4942600;29;20026;-88
2023/12/13 03:40:40;;;;;;;0.68;0.30;;;8.00;85.80;;;;;;4942966;29;20039;-87
2023/12/13 03:43:06;;;;;;;0.47;0.20;;;8.00;86.00;;;;;;4944558;29;20435;-86
2023/12/13 03:45:33;;;;;;;5.22;1.00;;;8.00;86.00;;;;;;4944376;29;20079;-88
2023/12/13 03:47:58;;;;;;;1.85;0.20;;;8.00;85.90;;;;;;4943945;29;20074;-88
2023/12/13 03:50:24;;;;;;;2.13;0.28;;;8.00;85.80;;;;;;4943402;29;20083;-82
2023/12/13 03:52:49;;;;;;;1.42;0.40;;;8.00;85.80;;;;;;4943544;28;20086;-87
2023/12/13 03:55:15;;;;;;;0.35;0.20;;;8.00;85.70;;;;;;4941793;29;20027;-85
2023/12/13 03:57:40;;;;;;;1.10;0.30;;;8.00;85.80;;;;;;4927653;29;20035;-90
2023/12/13 04:00:06;;;;;;;0.90;0.20;;;8.00;85.60;;;;;;4946678;29;20066;-92
2023/12/13 04:02:34;;;;;;;1.65;0.50;;;7.90;85.80;;;;;;4962942;28;20031;-85
2023/12/13 04:04:59;;;;;;;1.15;0.50;;;7.90;85.70;;;;;;4963745;29;20011;-80
2023/12/13 04:07:25;;;;;;;1.98;0.52;;;7.90;85.70;;;;;;4960249;29;20047;-81
2023/12/13 04:09:50;;;;;;;2.75;0.60;;;7.80;85.50;;;;;;4977076;29;20034;-76
2023/12/13 04:12:17;;;;;;;0.73;0.40;;;7.70;85.40;;;;;;4962540;28;20051;-82
2023/12/13 04:14:42;;;;;;;1.83;0.93;;;7.70;85.70;;;;;;4961270;29;20027;-82
2023/12/13 04:17:08;;;;;;;4.53;1.30;;;7.70;86.10;;;;;;4961419;29;20047;-77
2023/12/13 04:19:33;;;;;;;3.58;2.05;;;7.70;86.10;;;;;;4977745;29;20039;-79
2023/12/13 04:21:59;;;;;;;3.42;2.25;;;7.70;86.00;;;;;;4959495;29;20012;-84
2023/12/13 04:24:24;;;;;;;2.90;1.80;;;7.60;85.90;;;;;;4959345;29;20019;-78
2023/12/13 04:26:50;;;;;;;3.75;1.60;;;7.60;85.80;;;;;;4959622;29;20054;-81
2023/12/13 04:29:16;;;;;;;2.00;1.30;;;7.60;85.90;;;;;;4962274;28;20027;-79
2023/12/13 04:31:42;;;;;;;3.80;1.65;;;7.60;86.00;;;;;;4962315;28;20027;-76
2023/12/13 04:34:07;;;;;;;1.98;1.30;;;7.60;86.00;;;;;;4960516;29;20047;-82
2023/12/13 04:36:33;;;;;;;2.25;1.23;;;7.60;86.00;;;;;;4976179;28;20015;-75
2023/12/13 04:39:00;;;;;;;4.57;1.15;;;7.60;85.80;;;;;;4974784;29;20047;-75
2023/12/13 04:41:26;;;;;;;3.05;0.90;;;7.60;85.80;;;;;;4975227;29;20042;-79
2023/12/13 04:43:51;;;;;;;3.65;0.70;;;7.60;85.60;;;;;;4959701;29;20023;-82
2023/12/13 04:46:17;;;;;;;3.22;0.80;;;7.70;85.60;;;;;;4959723;29;20034;-85
2023/12/13 04:48:43;;;;;;;2.72;1.00;;;7.60;85.40;;;;;;4976854;28;20079;-81
2023/12/13 04:51:08;;;;;;;3.08;0.60;;;7.70;85.30;;;;;;4957728;29;20047;-81
2023/12/13 04:53:34;;;;;;;2.50;0.80;;;7.70;85.00;;;;;;4956636;29;20504;-77
2023/12/13 04:56:00;;;;;;;2.40;0.70;;;7.60;84.50;;;;;;4951944;29;20020;-87
2023/12/13 04:58:27;;;;;;;1.88;0.60;;;7.60;84.20;;;;;;4954463;29;20064;-84
2023/12/13 05:00:52;;;;;;;3.92;0.88;;;7.60;84.50;;;;;;4954291;29;20035;-75
2023/12/13 05:03:18;;;;;;;2.50;0.85;;;7.60;84.70;;;;;;4957895;29;20011;-85
2023/12/13 05:05:43;;;;;;;3.85;1.05;;;7.60;84.90;;;;;;4949287;29;20118;-86
2023/12/13 05:08:12;;;;;;;3.65;0.90;;;7.60;84.70;;;;;;4945030;29;20020;-87
2023/12/13 05:10:40;;;;;;;3.25;1.05;;;7.60;84.50;;;;;;4945939;29;20027;-82
2023/12/13 05:13:07;;;;;;;4.07;0.80;;;7.60;84.60;;;;;;4953238;29;20024;-80
2023/12/13 05:15:33;;;;;;;3.97;0.95;;;7.60;84.30;;;;;;4948793;29;20091;-82
2023/12/13 05:17:58;;;;;;;3.97;0.65;;;7.60;84.40;;;;;;4941506;29;20055;-82
2023/12/13 05:20:24;;;;;;;3.72;0.88;;;7.60;84.50;;;;;;4949770;29;20043;-84
2023/12/13 05:22:49;;;;;;;4.03;1.05;;;7.50;84.60;;;;;;4949944;29;20042;-79
2023/12/13 05:25:15;;;;;;;3.50;1.25;;;7.50;84.80;;;;;;4950492;29;20083;-84
2023/12/13 05:27:42;;;;;;;3.95;0.90;;;7.50;84.60;;;;;;4950059;29;20024;-86
2023/12/13 05:30:08;;;;;;;3.08;1.00;;;7.50;84.70;;;;;;4952020;29;20099;-83
2023/12/13 05:32:34;;;;;;;8.40;1.50;;;7.40;84.60;;;;;;4947395;29;20031;-84
2023/12/13 05:35:00;;;;;;;5.28;1.13;;;7.50;84.50;;;;;;4950915;29;20024;-86
2023/12/13 05:37:27;;;;;;;7.63;1.23;;;7.50;84.50;;;;;;4956429;29;20031;-88
2023/12/13 05:39:53;;;;;;;3.20;0.70;;;7.40;84.50;;;;;;4957512;29;20020;-86
2023/12/13 05:42:27;;;;;;;4.70;1.00;;;7.40;84.70;;;;;;4952645;29;20032;-77
2023/12/13 05:44:54;;;;;;;2.80;1.05;;;7.40;84.90;;;;;;4956710;29;20016;-83
2023/12/13 05:47:19;;;;;;;4.40;1.02;;;7.40;85.00;;;;;;4938873;29;20068;-76
2023/12/13 05:49:45;;;;;;;5.60;1.17;;;7.40;85.00;;;;;;4955826;29;20048;-76
2023/12/13 05:52:11;;;;;;;4.10;1.27;;;7.50;85.20;;;;;;4960038;28;20046;-80
2023/12/13 05:54:36;;;;;;;3.03;1.00;;;7.50;85.20;;;;;;4960679;29;20038;-85
2023/12/13 05:57:02;;;;;;;5.63;1.50;;;7.50;85.10;;;;;;4960434;29;20027;-85
2023/12/13 05:59:28;;;;;;;4.32;1.60;;;7.50;85.00;;;;;;4960852;29;20023;-87
2023/12/13 06:01:54;;;;;;;6.78;1.90;;;7.50;84.90;;;;;;4961209;29;20060;-86
2023/12/13 06:04:19;;;;;;;5.07;1.58;;;7.50;84.90;;;;;;4957180;29;20054;-87
2023/12/13 06:06:48;;;;;;;4.47;1.10;;;7.60;85.00;;;;;;4953671;29;20039;-81
2023/12/13 06:09:14;;;;;;;4.30;1.27;;;7.50;85.10;;;;;;4973844;29;20004;-78
2023/12/13 06:11:41;;;;;;;3.63;1.45;;;7.50;85.30;;;;;;4958945;29;20091;-82
2023/12/13 06:14:07;;;;;;;3.22;1.00;;;7.50;85.30;;;;;;4958801;29;20091;-82
2023/12/13 06:16:35;;;;;;;3.47;1.05;;;7.40;85.40;;;;;;4955956;29;20034;-83
2023/12/13 06:19:02;;;;;;;4.38;1.00;;;7.50;85.40;;;;;;4944251;29;20027;-82
2023/12/13 06:21:29;;;;;;;3.53;1.00;;;7.50;85.60;;;;;;4955762;29;20039;-83
2023/12/13 06:23:56;;;;;;;4.25;1.00;;;7.50;85.70;;;;;;4955766;29;20027;-82
2023/12/13 06:26:21;;;;;;;2.65;0.90;;;7.50;85.80;;;;;;4956400;29;20035;-83
2023/12/13 06:28:47;;;;;;;6.65;2.35;;;7.60;86.00;;;;;;4953399;29;20023;-81
2023/12/13 06:31:12;;;;;;;7.25;2.85;;;7.60;86.00;;;;;;4942178;29;20075;-83
2023/12/13 06:33:40;;;;;;;8.77;3.63;;;7.60;86.00;;;;;;4954545;29;20062;-85
2023/12/13 06:36:05;;;;;;;7.65;2.63;;;7.70;86.90;;;;;;4957597;29;20123;-85
2023/12/13 06:38:31;;;;;;;5.47;2.22;;;7.70;86.00;;;;;;4975133;29;20170;-80
2023/12/13 06:40:58;;;;;;;4.00;1.80;;;7.80;85.80;;;;;;4956495;29;20647;-79
2023/12/13 06:43:24;;;;;;;7.38;3.22;;;7.80;85.60;;;;;;4958832;29;20026;-87
2023/12/13 06:45:50;;;;;;;7.97;2.25;;;7.80;85.40;;;;;;4959330;29;20122;-81
2023/12/13 06:48:16;;;;;;;6.88;2.00;;;7.70;85.40;;;;;;4960415;29;20039;-84
2023/12/13 06:50:41;;;;;;;4.35;1.73;;;7.80;85.30;;;;;;4957143;29;20052;-81
2023/12/13 06:53:08;;;;;;;5.65;1.42;;;7.80;85.20;;;;;;4955444;29;20031;-82
2023/12/13 06:55:33;;;;;;;5.65;2.35;;;7.80;85.00;;;;;;4954809;29;20050;-85
2023/12/13 06:58:00;;;;;;;6.45;2.72;;;7.80;84.80;;;;;;4958985;29;20023;-85
2023/12/13 07:00:27;;;;;;;9.63;2.95;;;7.90;84.70;;;;;;4958213;29;20071;-84
2023/12/13 07:02:53;;;;;;;4.70;2.10;;;7.90;84.60;;;;;;4956018;29;20020;-81
2023/12/13 07:05:19;;;;;;;4.97;2.03;;;7.90;84.40;;;;;;4956299;29;20023;-77
2023/12/13 07:07:46;;;;;;;5.00;1.65;;;7.90;84.20;;;;;;4941744;29;20024;-85
2023/12/13 07:10:12;;;;;;;4.28;1.15;;;8.00;84.80;;;;;;4941400;29;20464;-85
2023/12/13 07:12:38;;;;;;;3.00;1.20;;;8.00;83.80;;;;;;4937670;29;20024;-81
2023/12/13 07:15:06;;;;;;;4.72;2.00;;;8.00;83.50;;;;;;4944075;29;20028;-86
2023/12/13 07:17:34;;;;;;;3.50;1.83;;;7.90;83.20;;;;;;4950898;29;20028;-87
2023/12/13 07:20:00;;;;;;;3.95;1.75;;;8.00;83.50;;;;;;4953405;29;20039;-85
2023/12/13 07:22:26;;;;;;;4.95;1.35;;;7.90;83.40;;;;;;4956469;29;20039;-83
2023/12/13 07:24:51;;;;;;;3.35;1.02;;;8.00;83.30;;;;;;4956129;29;20068;-89
2023/12/13 07:27:17;;;;;;;3.08;1.00;;;8.00;83.00;;;;;;4959028;29;20016;-89
2023/12/13 07:29:43;;;;;;;5.65;1.42;;;8.00;82.80;;;;;;4951110;29;20115;-88
2023/12/13 07:32:12;;;;;;;5.97;1.38;;;8.00;82.90;;;;;;4934523;29;20015;-88
2023/12/13 07:34:37;;;;;;;6.78;1.38;;;8.00;83.00;;;;;;4942566;29;20031;-86
2023/12/13 07:37:03;;;;;;;5.82;1.83;;;8.00;82.80;;;;;;4926866;29;20032;-79
2023/12/13 07:39:33;;;;;;;5.00;1.48;;;8.00;82.80;;;;;;4941783;29;20056;-87
2023/12/13 07:41:59;;;;;;;6.18;1.10;;;8.00;82.80;;;;;;4942856;29;20024;-80
2023/12/13 07:44:25;;;;;;;2.38;0.90;;;8.00;82.80;;;;;;4942206;29;20016;-82
2023/12/13 07:46:52;;;;;;;6.53;1.13;;;8.10;82.80;;;;;;4931481;29;20083;-84
2023/12/13 07:49:18;;;;;;;3.70;1.00;;;8.10;82.80;;;;;;4938283;29;20028;-89
2023/12/13 07:51:43;;;;;;;4.63;1.45;;;8.10;82.60;;;;;;4949723;29;20083;-82
2023/12/13 07:54:11;;;;;;;5.70;1.50;;;8.10;82.00;;;;;;4945255;29;20019;-86
2023/12/13 07:56:37;;;;;;;2.60;1.25;;;8.00;81.70;;;;;;4940933;29;20115;-84
2023/12/13 07:59:02;;;;;;;11.05;2.10;;;8.00;82.00;;;;;;4938483;29;20087;-80
2023/12/13 08:01:28;;;;;;;4.75;1.55;;;8.20;86.70;;;;;;4935995;29;20032;-80
2023/12/13 08:03:55;;;;;;;5.05;1.77;;;8.40;87.40;;;;;;4936729;29;20024;-78
2023/12/13 08:06:21;;;;;;;4.13;2.03;;;8.70;88.30;;;;;;4936699;29;20046;-79
2023/12/13 08:08:47;;;;;;;7.57;2.15;;;9.10;85.50;;;;;;4935796;29;20024;-75
2023/12/13 08:11:13;;;;;;;3.83;1.58;;;9.40;83.00;;;;;;4936258;29;20403;-79
2023/12/13 08:13:39;;;;;;;7.68;2.25;;;9.70;80.60;;;;;;4935168;29;20030;-77
2023/12/13 08:16:05;;;;;;;3.75;1.45;;;9.70;78.90;;;;;;4935824;29;20098;-76
2023/12/13 08:18:31;;;;;;;6.35;1.65;;;9.60;77.90;;;;;;4935323;29;20389;-78
2023/12/13 08:20:56;;;;;;;7.05;1.67;;;9.60;78.20;;;;;;4955888;23;20099;-76
2023/12/13 08:23:22;;;;;;;4.55;1.20;;;9.50;78.70;;;;;;4916366;29;20020;-76
2023/12/13 08:25:47;;;;;;;5.95;1.25;;;9.20;78.70;;;;;;4918598;29;20024;-78
2023/12/13 08:28:13;;;;;;;4.15;1.45;;;9.10;79.20;;;;;;4919317;29;20489;-86
2023/12/13 08:30:39;;;;;;;5.65;1.60;;;9.20;80.80;;;;;;4917134;29;20119;-78
2023/12/13 08:33:04;;;;;;;5.50;1.98;;;9.50;80.50;;;;;;4917777;29;20032;-76
2023/12/13 08:35:30;;;;;;;5.07;1.98;;;9.80;79.40;;;;;;4917829;29;20044;-78
2023/12/13 08:37:55;;;;;;;5.40;1.55;;;9.90;78.70;;;;;;4919674;29;20029;-76
2023/12/13 08:40:21;;;;;;;4.32;2.10;;;10.10;78.80;;;;;;4922014;29;20039;-75
2023/12/13 08:42:47;;;;;;;5.28;2.08;;;10.20;77.60;;;;;;4928003;29;20058;-76
2023/12/13 08:45:13;;;;;;;5.95;2.28;;;10.10;77.20;;;;;;4917874;29;20527;-80
2023/12/13 08:47:39;;;;;;;7.63;2.22;;;10.10;77.20;;;;;;4917390;29;20028;-81
2023/12/13 08:50:05;;;;;;;5.53;1.70;;;9.90;77.20;;;;;;4917790;29;20048;-76
2023/12/13 08:52:33;;;;;;;5.70;2.03;;;9.70;78.00;;;;;;4918116;29;20054;-80
2023/12/13 08:54:58;;;;;;;5.20;2.20;;;9.50;78.20;;;;;;4901078;29;20024;-79
2023/12/13 08:57:24;;;;;;;7.03;2.17;;;9.40;78.50;;;;;;4921641;29;20083;-83
2023/12/13 08:59:49;;;;;;;5.03;2.40;;;9.40;79.20;;;;;;4921441;29;20036;-77
2023/12/13 09:02:16;;;;;;;4.82;3.03;;;9.10;78.70;;;;;;4919996;29;20039;-80
2023/12/13 09:04:41;;;;;;;6.25;2.88;;;9.10;79.50;;;;;;4916664;29;20028;-82
2023/12/13 09:07:07;;;;;;;6.97;3.20;;;9.10;80.50;;;;;;4915548;29;20028;-78
2023/12/13 09:09:32;;;;;;;3.70;2.10;;;9.00;80.50;;;;;;4917549;29;20024;-80
2023/12/13 09:12:01;;;;;;;3.05;1.25;;;9.00;80.20;;;;;;4917728;29;20039;-83
2023/12/13 09:14:27;;;;;;;3.38;1.58;;;9.10;79.80;;;;;;4918003;29;20160;-78
2023/12/13 09:16:53;;;;;;;2.47;1.30;;;9.10;79.70;;;;;;4916259;29;20035;-83
2023/12/13 09:19:19;;;;;;;4.45;1.65;;;9.10;79.90;;;;;;4916425;29;20024;-84
2023/12/13 09:21:44;;;;;;;3.22;1.70;;;9.00;79.90;;;;;;4919497;29;20036;-84
2023/12/13 09:24:10;;;;;;;4.55;1.40;;;9.00;80.10;;;;;;4919567;29;20106;-82
2023/12/13 09:26:35;;;;;;;2.55;1.30;;;9.00;80.60;;;;;;4919795;29;20032;-83
2023/12/13 09:29:04;;;;;;;3.85;1.67;;;8.90;80.90;;;;;;4919861;29;20024;-79
2023/12/13 09:31:29;;;;;;;4.10;1.10;;;8.90;81.40;;;;;;4936984;29;20023;-83
2023/12/13 09:33:55;;;;;;;3.00;0.98;;;8.80;81.60;;;;;;4920354;29;20382;-84
2023/12/13 09:36:21;;;;;;;1.10;0.90;;;8.70;81.70;;;;;;4920187;29;20032;-83
2023/12/13 09:38:47;;;;;;;1.33;0.68;;;8.70;82.10;;;;;;4920051;29;20051;-83
2023/12/13 09:41:25;;;;;;;2.30;0.75;;;8.60;80.40;;;;;;4937347;29;20075;-84
2023/12/13 09:43:53;;;;;;;1.08;0.57;;;8.50;81.20;;;;;;4920436;29;20024;-83
2023/12/13 09:46:20;;;;;;;2.45;1.40;;;8.50;80.60;;;;;;4937596;29;20500;-84
2023/12/13 09:48:46;;;;;;;2.92;1.40;;;8.50;81.10;;;;;;4920727;29;20083;-83
2023/12/13 09:51:12;;;;;;;1.00;0.40;;;8.40;80.60;;;;;;4920751;29;20028;-85
2023/12/13 09:53:39;;;;;;;2.70;0.60;;;8.50;80.70;;;;;;4924021;29;20118;-85
2023/12/13 09:56:08;;;;;;;2.40;0.52;;;8.50;80.30;;;;;;4924812;29;20024;-82
2023/12/13 09:58:37;;;;;;;2.17;0.30;;;8.50;80.30;;;;;;4924521;29;20094;-78
2023/12/13 10:01:15;;;;;;;1.30;0.40;;;8.50;80.50;;;;;;4935836;29;20047;-85
2023/12/13 10:03:42;;;;;;;0.95;0.30;;;8.60;80.00;;;;;;4939612;29;20020;-79
2023/12/13 10:06:08;;;;;;;0.50;0.30;;;8.60;80.30;;;;;;4922643;29;20032;-81
2023/12/13 10:08:35;;;;;;;1.52;0.35;;;8.60;80.60;;;;;;4922065;29;20055;-75
2023/12/13 10:11:02;;;;;;;0.32;0.30;;;8.70;79.60;;;;;;4922595;29;20031;-78
2023/12/13 10:13:28;;;;;;;0.20;0.20;;;8.80;79.90;;;;;;4927016;29;20381;-75
2023/12/13 10:15:53;;;;;;;0.88;0.50;;;8.80;79.00;;;;;;4932437;29;20032;-83
2023/12/13 10:18:19;;;;;;;3.10;0.52;;;8.90;79.70;;;;;;4929394;29;20028;-79
2023/12/13 10:20:46;;;;;;;0.60;0.40;;;8.80;79.90;;;;;;4948676;29;20052;-83
2023/12/13 10:23:12;;;;;;;1.95;0.70;;;8.80;79.80;;;;;;4938654;29;20374;-82
2023/12/13 10:25:38;;;;;;;1.38;0.50;;;8.90;79.50;;;;;;4929458;29;20038;-79
2023/12/13 10:28:05;;;;;;;2.17;1.15;;;8.90;79.80;;;;;;4922097;29;20093;-79
2023/12/13 10:30:32;;;;;;;5.22;1.02;;;9.00;80.00;;;;;;4922708;29;20114;-80
2023/12/13 10:32:57;;;;;;;2.08;1.05;;;9.00;81.30;;;;;;4929656;29;20038;-87
2023/12/13 10:35:24;;;;;;;3.65;1.50;;;9.10;82.20;;;;;;4939491;29;20016;-75
2023/12/13 10:37:52;;;;;;;2.85;1.50;;;9.10;83.10;;;;;;4942153;29;20035;-75
2023/12/13 10:40:20;;;;;;;2.70;1.33;;;9.30;83.20;;;;;;4931778;29;20059;-79
2023/12/13 10:42:51;;;;;;;1.98;1.48;;;9.80;82.00;;;;;;4923236;29;20082;-80
2023/12/13 10:45:18;;;;;;;2.72;1.40;;;10.80;78.80;;;;;;4939065;29;20090;-83
2023/12/13 10:47:45;;;;;;;3.05;2.10;;;11.70;74.90;;;;;;4935081;29;20036;-80
2023/12/13 10:50:11;;;;;;;2.58;2.13;;;12.30;71.30;;;;;;4903002;29;20032;-77
2023/12/13 10:52:38;;;;;;;4.03;2.80;;;12.50;70.10;;;;;;4916087;29;20043;-78
2023/12/13 10:55:08;;;;;;;2.75;2.30;;;12.30;69.50;;;;;;4933526;29;20040;-83
2023/12/13 10:57:36;;;;;;;3.75;2.40;;;12.00;70.50;;;;;;4935751;29;20089;-87
2023/12/13 11:00:05;;;;;;;2.10;1.90;;;11.60;71.90;;;;;;4942396;29;20031;-86
2023/12/13 11:02:41;;;;;;;4.88;2.08;;;11.30;73.20;;;;;;4936759;28;20055;-79
2023/12/13 11:05:07;;;;;;;2.85;2.10;;;11.20;74.50;;;;;;4956267;29;20482;-81
2023/12/13 11:07:43;;;;;;;3.22;2.38;;;11.10;74.60;;;;;;4956783;29;20027;-82
2023/12/13 11:10:10;;;;;;;3.30;1.60;;;11.40;75.70;;;;;;4930100;29;20023;-81
2023/12/13 11:12:49;;;;;;;3.83;1.73;;;12.30;73.20;;;;;;4925084;29;20023;-83
2023/12/13 11:15:15;;;;;;;3.72;1.80;;;13.60;67.60;;;;;;4905144;29;20027;-76
2023/12/13 11:17:45;;;;;;;2.17;1.80;;;14.30;64.60;;;;;;4921091;29;20597;-79
2023/12/13 11:20:13;;;;;;;3.08;1.83;;;14.30;62.50;;;;;;4917707;29;20401;-82
2023/12/13 11:22:44;;;;;;;3.30;1.80;;;14.40;61.10;;;;;;4918778;29;20031;-83
2023/12/13 11:25:10;;;;;;;3.35;2.28;;;15.20;59.70;;;;;;4918197;29;20028;-84
2023/12/13 11:27:46;;;;;;;4.35;2.63;;;15.20;58.70;;;;;;4918434;29;20312;-84
2023/12/13 11:30:13;;;;;;;2.60;1.42;;;14.70;57.30;;;;;;4919497;29;20107;-86
2023/12/13 11:32:46;;;;;;;1.02;0.65;;;14.10;57.30;;;;;;4917876;29;20036;-85
2023/12/13 11:35:14;;;;;;;2.05;0.65;;;13.50;56.40;;;;;;4920304;29;20028;-83
2023/12/13 11:37:40;;;;;;;0.98;0.40;;;12.80;56.90;;;;;;4918093;29;20074;-84
2023/12/13 11:40:07;;;;;;;2.47;1.50;;;12.20;58.60;;;;;;4918972;29;20048;-81
2023/12/13 11:42:32;;;;;;;3.20;0.70;;;11.80;60.40;;;;;;4918702;29;20039;-87
2023/12/13 11:44:58;;;;;;;2.25;0.70;;;12.10;59.10;;;;;;4921301;29;20016;-86
2023/12/13 11:47:25;;;;;;;3.05;0.90;;;12.60;58.60;;;;;;4919215;29;20072;-85
2023/12/13 11:49:51;;;;;;;3.45;0.63;;;12.40;57.20;;;;;;4927050;29;20564;-84
2023/12/13 11:52:16;;;;;;;2.72;0.60;;;12.10;59.20;;;;;;4929778;29;20036;-85
2023/12/13 11:54:42;;;;;;;2.92;0.55;;;11.80;58.70;;;;;;4923906;29;20095;-85
2023/12/13 11:57:18;;;;;;;1.90;0.50;;;11.60;59.90;;;;;;4919530;29;20503;-85
2023/12/13 11:59:45;;;;;;;1.55;0.50;;;11.80;59.90;;;;;;4921063;29;20048;-85
2023/12/13 12:02:12;;;;;;;1.48;0.45;;;12.70;56.60;;;;;;4919801;29;20036;-84
2023/12/13 12:04:38;;;;;;;1.92;0.68;;;14.10;53.40;;;;;;4918593;29;20480;-84
2023/12/13 12:07:05;;;;;;;1.65;0.30;;;14.90;49.30;;;;;;4919181;29;20057;-83
2023/12/13 12:09:31;;;;;;;0.63;0.20;;;14.50;49.50;;;;;;4917364;29;20389;-83
2023/12/13 12:11:57;;;;;;;1.00;0.20;;;13.70;52.20;;;;;;4918857;29;20079;-79
2023/12/13 12:14:27;;;;;;;0.55;0.30;;;13.20;53.20;;;;;;4917162;29;20028;-83
2023/12/13 12:16:54;;;;;;;0.80;0.40;;;13.20;53.90;;;;;;4918543;29;20038;-83
2023/12/13 12:19:19;;;;;;;1.05;0.57;;;13.00;54.50;;;;;;4919155;29;20023;-84
2023/12/13 12:21:45;;;;;;;1.55;0.43;;;12.60;55.90;;;;;;4921149;29;20126;-81
2023/12/13 12:24:11;;;;;;;2.42;0.57;;;12.10;58.20;;;;;;4919751;29;20020;-84
2023/12/13 12:26:37;;;;;;;0.73;0.40;;;12.00;59.20;;;;;;4937304;29;20092;-81
2023/12/13 12:29:02;;;;;;;1.48;1.00;;;11.90;59.10;;;;;;4920050;29;20430;-81
2023/12/13 12:31:30;;;;;;;1.48;0.70;;;12.00;59.40;;;;;;4920125;29;20511;-84
2023/12/13 12:33:56;;;;;;;1.45;0.73;;;12.40;58.20;;;;;;4905600;29;20492;-80
2023/12/13 12:36:23;;;;;;;1.95;0.60;;;13.00;55.80;;;;;;4937128;29;20032;-81
2023/12/13 12:38:51;;;;;;;2.00;0.50;;;13.70;53.00;;;;;;4919660;29;20576;-85
2023/12/13 12:41:17;;;;;;;1.58;0.50;;;14.40;50.40;;;;;;4919371;29;20043;-81
2023/12/13 12:43:43;;;;;;;3.20;0.77;;;15.00;48.20;;;;;;4922430;29;20036;-83
2023/12/13 12:46:09;;;;;;;1.35;0.50;;;14.50;49.60;;;;;;4922841;29;20032;-82
2023/12/13 12:48:36;;;;;;;2.25;0.40;;;14.20;49.80;;;;;;4942285;29;20492;-81
2023/12/13 12:51:02;;;;;;;1.58;0.40;;;13.60;51.30;;;;;;4921236;29;20401;-82